METAR Data
IDs: Format: Raw Decoded Include TAF

Data at: 1731 UTC 19 Sep 2018

KAPC 191654Z 00000KT 10SM SCT009 15/12 A2993 RMK AO2 SLP127 T01500117
KAPC 191554Z 00000KT 10SM SCT009 14/11 A2992 RMK AO2 SLP124 T01390111
KAPC 191510Z 36003KT 10SM SCT009 12/11 A2992 RMK AO2 T01170111
KAPC 191501Z 00000KT 8SM OVC009 11/11 A2992 RMK AO2 T01060106
KAPC 191454Z 00000KT 10SM SCT009 SCT013 11/10 A2991 RMK AO2 SLP121 T01110100 53012
KAPC 191358Z 00000KT 10SM SCT009 SCT013 08/08 A2990 RMK AO2 T00830078
KAPC 191354Z AUTO 00000KT 8SM BKN009 09/08 A2990 RMK AO2 SLP116 T00890078
KAPC 191304Z AUTO 01003KT 8SM BKN009 08/08 A2989 RMK AO2 T00830078
KAPC 191254Z AUTO 01003KT 6SM BR SCT010 08/07 A2989 RMK AO2 SLP111 T00780072
KAPC 191241Z AUTO 00000KT 7SM FEW010 08/08 A2988 RMK AO2 T00830083
KAPC 191154Z AUTO 36005KT 10SM BKN009 BKN013 09/08 A2988 RMK AO2 SLP109 T00890083 10139 20083 58001
KAPC 191123Z AUTO 35005KT 7SM BKN011 09/08 A2988 RMK AO2 T00890078
KAPC 191112Z AUTO 34005KT 8SM BKN009 BKN013 09/08 A2988 RMK AO2 T00890078
KAPC 191054Z AUTO 34003KT 10SM FEW009 09/08 A2988 RMK AO2 SLP108 T00940078
KAPC 191045Z AUTO 34003KT 10SM FEW009 09/08 A2988 RMK AO2 T00940083
KAPC 191018Z AUTO 00000KT 10SM SCT010 09/08 A2988 RMK AO2 T00940083
KAPC 190954Z AUTO 00000KT 10SM BKN010 OVC015 09/08 A2989 RMK AO2 SLP113 T00890078
KAPC 190930Z AUTO 32005KT 10SM BKN010 OVC014 09/08 A2989 RMK AO2 T00940083
KAPC 190923Z AUTO 34003KT 10SM BKN009 BKN014 11/09 A2988 RMK AO2 T01060094
KAPC 190915Z AUTO 00000KT 10SM SCT009 BKN014 11/09 A2988 RMK AO2 T01060089
KAPC 190902Z AUTO 32003KT 10SM FEW009 SCT014 12/09 A2988 RMK AO2 T01170094
KAPC 190854Z AUTO VRB03KT 10SM FEW010 FEW014 11/09 A2988 RMK AO2 SLP110 T01110094 51002
KAPC 190754Z AUTO 26006KT 10SM CLR 13/11 A2988 RMK AO2 SLP110 T01280111 402280106
KAPC 190654Z AUTO 00000KT 10SM CLR 12/09 A2988 RMK AO2 SLP108 T01170094
KAPC 190554Z AUTO 25003KT 10SM CLR 13/10 A2988 RMK AO2 SLP108 T01280100 10211 20128 50002
KAPC 190454Z AUTO 21008KT 10SM CLR 15/12 A2988 RMK AO2 SLP110 T01500122
KAPC 190354Z AUTO 18006KT 10SM CLR 15/13 A2988 RMK AO2 SLP109 T01500128
KAPC 190254Z AUTO 18006KT 10SM CLR 16/13 A2987 RMK AO2 SLP105 T01560128 53001
KAPC 190154Z 10SM CLR 17/12 A2987 RMK AO2 SLP105 T01670122
KAPC 190054Z 10SM CLR 19/13 A2987 RMK AO2 SLP105 T01890128
KAPC 182354Z 21012KT 10SM CLR 21/12 A2987 RMK AO2 SLP105 T02110122 10228 20156 56019
KAPC 182254Z 21011KT 10SM CLR 22/12 A2988 RMK AO2 SLP109 T02220122
KAPC 182154Z 19009KT 10SM CLR 21/13 A2990 RMK AO2 SLP115 T02110128
KAPC 182054Z 22007KT 10SM CLR 21/12 A2992 RMK AO2 SLP123 T02060117 58021
KAPC 181954Z 20008KT 10SM CLR 18/12 A2995 RMK AO2 SLP132 T01830117
KAPC 181854Z 22007KT 10SM CLR 18/12 A2997 RMK AO2 SLP139 T01780117
KAPC 181838Z 23008KT 10SM SCT013 17/12 A2998 RMK AO2 T01670117
KAPC 181754Z COR VRB05KT 10SM BKN013 16/11 A2998 RMK AO2 SLP145 T01560111 10156 20133 51004
KAPC 181654Z 24005KT 10SM OVC011 14/11 A2998 RMK AO2 SLP143 T01440111
KAPC 181554Z 29005KT 10SM OVC010 14/11 A2998 RMK AO2 SLP142 T01390111
KAPC 181454Z 30005KT 10SM OVC010 13/11 A2997 RMK AO2 SLP141 T01330111
KAPC 181428Z 00000KT 10SM OVC011 13/11 A2997 RMK AO2 T01330111
KAPC 181254Z 32003KT 10SM OVC011 14/11 A2995 RMK AO2 SLP132 T01390111 $
KAPC 181154Z 31004KT 10SM OVC012 14/11 A2994 RMK AO2 SLP130 60000 T01390111 10139 20111 55000 $
KAPC 181054Z 10SM OVC011 14/12 A2994 RMK AO2 SLP130 T01390117 $
KAPC 180954Z 00000KT 10SM OVC011 13/11 A2994 RMK AO2 SLP130 T01330111 $
KAPC 180854Z 00000KT 10SM OVC013 12/11 A2994 RMK AO2 SLP130 60000 T01220106 50000 $
KAPC 180754Z 00000KT 10SM OVC014 13/11 A2995 RMK AO2 SLP132 T01280106 402390111 $
KAPC 180654Z VRB03KT 10SM BKN014 12/10 A2994 RMK AO2 RAE26 SLP131 P0000 T01220100 $
KAPC 180651Z 00000KT 10SM BKN014 12/10 A2994 RMK AO2 RAE26 P0000 $
KAPC 180554Z 24007KT 10SM -RA CLR 13/11 A2995 RMK AO2 RAE29B48 SLP132 P0000 60000 T01330111 10233 20111 51010 $